Time;durP1;ratioP1;P1;durP2;ratioP2;P2;SDS_P1;SDS_P2;PMS_P1;PMS_P2;Temp;Humidity;BMP_temperature;BMP_pressure;BME280_temperature;BME280_humidity;BME280_pressure;Samples;Min_cycle;Max_cycle;Signal;HPM_P1;HPM_P2
2021/08/29 00:01:01;;;;;;;5.03;4.10;;;16.30;98.30;;;;;;4082943;29;20470;-82
2021/08/29 00:03:04;;;;;;;8.00;4.67;;;16.30;98.30;;;;;;4092463;29;20474;-83
2021/08/29 00:05:08;;;;;;;5.73;5.13;;;16.30;98.30;;;;;;4086942;28;20498;-82
2021/08/29 00:07:11;;;;;;;6.73;6.03;;;16.30;98.30;;;;;;4092048;28;20479;-82
2021/08/29 00:09:14;;;;;;;5.87;4.83;;;16.40;98.30;;;;;;4092561;29;20553;-82
2021/08/29 00:11:17;;;;;;;6.00;4.30;;;16.40;98.30;;;;;;4086330;29;20476;-82
2021/08/29 00:13:21;;;;;;;7.37;6.57;;;16.40;98.30;;;;;;4091478;29;20584;-81
2021/08/29 00:15:24;;;;;;;7.63;5.50;;;16.30;98.30;;;;;;4088001;28;20481;-82
2021/08/29 00:17:27;;;;;;;9.43;6.37;;;16.30;98.30;;;;;;4089058;29;20519;-82
2021/08/29 00:19:30;;;;;;;6.10;5.27;;;16.30;98.30;;;;;;4088645;29;20854;-82
2021/08/29 00:21:32;;;;;;;7.43;5.30;;;16.30;98.30;;;;;;4093759;29;20499;-82
2021/08/29 00:23:35;;;;;;;6.03;5.30;;;16.30;98.30;;;;;;4088755;29;20496;-82
2021/08/29 00:25:38;;;;;;;6.03;5.00;;;16.40;98.30;;;;;;4091776;29;20517;-83
2021/08/29 00:27:41;;;;;;;6.73;5.60;;;16.30;98.30;;;;;;4088515;29;20483;-82
2021/08/29 00:29:46;;;;;;;4.40;4.00;;;16.40;98.30;;;;;;4089065;28;21200;-81
2021/08/29 00:31:49;;;;;;;6.40;4.70;;;16.40;98.30;;;;;;4088926;29;20484;-82
2021/08/29 00:33:51;;;;;;;7.37;4.90;;;16.30;98.30;;;;;;4089509;29;20508;-82
2021/08/29 00:35:54;;;;;;;5.53;4.43;;;16.30;98.30;;;;;;4085287;28;20500;-82
2021/08/29 00:37:57;;;;;;;6.43;5.60;;;16.30;98.30;;;;;;4085035;29;21433;-82
2021/08/29 00:40:01;;;;;;;6.00;4.57;;;16.30;98.30;;;;;;4094114;28;21351;-82
2021/08/29 00:42:06;;;;;;;5.37;4.57;;;16.30;98.30;;;;;;4088661;29;20473;-82
2021/08/29 00:44:09;;;;;;;7.20;4.70;;;16.30;98.30;;;;;;4089320;28;20488;-82
2021/08/29 00:46:13;;;;;;;7.30;5.10;;;16.30;98.30;;;;;;4093221;29;20481;-82
2021/08/29 00:48:17;;;;;;;7.03;5.53;;;16.40;98.30;;;;;;4096851;28;20473;-82
2021/08/29 00:50:20;;;;;;;7.53;5.67;;;16.40;98.30;;;;;;4092444;29;21274;-82
2021/08/29 00:52:23;;;;;;;7.53;4.97;;;16.40;98.30;;;;;;4094375;29;20512;-82
2021/08/29 00:54:29;;;;;;;7.20;5.80;;;16.40;98.30;;;;;;4093353;28;20494;-82
2021/08/29 00:56:32;;;;;;;5.10;4.50;;;16.40;98.30;;;;;;4083116;29;20486;-82
2021/08/29 00:58:36;;;;;;;8.50;4.80;;;16.30;98.30;;;;;;4090340;28;20473;-82
2021/08/29 01:00:41;;;;;;;6.47;5.47;;;16.30;98.30;;;;;;4086373;29;20470;-82
2021/08/29 01:02:47;;;;;;;7.30;5.97;;;16.30;98.30;;;;;;4083780;28;20462;-81
2021/08/29 01:04:57;;;;;;;6.50;5.00;;;16.30;98.30;;;;;;4089411;28;20511;-82
2021/08/29 01:07:05;;;;;;;7.57;5.50;;;16.30;98.30;;;;;;4079276;28;20849;-82
2021/08/29 01:09:12;;;;;;;6.67;5.20;;;16.30;98.30;;;;;;4085442;28;20476;-82
2021/08/29 01:11:18;;;;;;;6.73;4.83;;;16.30;98.30;;;;;;4084040;28;20473;-82
2021/08/29 01:13:26;;;;;;;7.73;5.10;;;16.30;98.30;;;;;;4087905;29;20497;-82
2021/08/29 01:15:32;;;;;;;6.37;5.30;;;16.30;98.30;;;;;;4088836;28;20482;-82
2021/08/29 01:17:37;;;;;;;6.33;4.53;;;16.40;98.30;;;;;;4093698;28;21108;-82
2021/08/29 01:19:50;;;;;;;7.30;5.27;;;16.40;98.30;;;;;;4088880;29;20481;-82
2021/08/29 01:21:54;;;;;;;6.70;5.43;;;16.40;98.30;;;;;;4093848;29;20485;-82
2021/08/29 01:24:00;;;;;;;6.50;5.37;;;16.40;98.30;;;;;;4091838;28;20502;-82
2021/08/29 01:26:06;;;;;;;7.67;5.07;;;16.30;98.30;;;;;;4092876;29;20481;-82
2021/08/29 01:28:13;;;;;;;8.10;6.17;;;16.30;98.30;;;;;;4088548;28;21162;-82
2021/08/29 01:30:18;;;;;;;7.87;6.70;;;16.30;98.30;;;;;;4085211;29;20895;-82
2021/08/29 01:32:21;;;;;;;8.60;7.20;;;16.30;98.30;;;;;;4086095;29;20474;-82
2021/08/29 01:34:24;;;;;;;4.70;4.30;;;16.40;98.30;;;;;;4090062;28;20502;-82
2021/08/29 01:36:28;;;;;;;7.40;5.90;;;16.30;98.30;;;;;;4090600;28;20626;-82
2021/08/29 01:38:31;;;;;;;7.10;6.30;;;16.20;98.30;;;;;;4085221;28;20838;-82
2021/08/29 01:40:35;;;;;;;6.53;5.10;;;16.20;98.30;;;;;;4087896;29;20814;-82
2021/08/29 01:42:39;;;;;;;6.20;5.10;;;16.30;98.30;;;;;;4089602;28;20469;-82
2021/08/29 01:44:44;;;;;;;6.20;5.60;;;16.30;98.30;;;;;;4087597;28;20499;-82
2021/08/29 01:46:49;;;;;;;8.30;5.50;;;16.30;98.30;;;;;;4091454;28;20476;-82
2021/08/29 01:48:52;;;;;;;10.97;6.40;;;16.30;98.30;;;;;;4094419;28;20556;-82
2021/08/29 01:50:55;;;;;;;6.10;5.30;;;16.30;98.30;;;;;;4090303;28;20472;-82
2021/08/29 01:52:59;;;;;;;7.07;5.20;;;16.30;98.30;;;;;;4086802;28;20478;-83
2021/08/29 01:55:01;;;;;;;8.27;5.70;;;16.30;98.30;;;;;;4086700;29;20822;-82
2021/08/29 01:57:13;;;;;;;5.50;4.60;;;16.30;98.30;;;;;;4091059;28;20493;-82
2021/08/29 01:59:16;;;;;;;6.13;4.90;;;16.20;98.30;;;;;;4092850;28;20480;-81
2021/08/29 02:01:19;;;;;;;7.53;5.73;;;16.20;98.30;;;;;;4090412;28;20919;-82
2021/08/29 02:03:25;;;;;;;10.33;5.80;;;16.20;98.30;;;;;;4090023;28;20488;-82
2021/08/29 02:05:29;;;;;;;9.00;5.00;;;16.20;98.30;;;;;;4087355;28;20482;-82
2021/08/29 02:07:34;;;;;;;5.50;4.33;;;16.20;98.30;;;;;;4082416;29;20466;-81
2021/08/29 02:09:40;;;;;;;4.50;4.07;;;16.10;98.30;;;;;;4082002;28;20478;-82
2021/08/29 02:11:47;;;;;;;5.30;4.60;;;16.10;98.30;;;;;;4090342;28;20990;-82
2021/08/29 02:13:54;;;;;;;6.40;5.30;;;16.10;98.30;;;;;;4087647;29;20493;-82
2021/08/29 02:16:01;;;;;;;7.30;5.97;;;16.10;98.30;;;;;;4091687;29;20505;-82
2021/08/29 02:18:07;;;;;;;6.83;5.63;;;16.10;98.30;;;;;;4090956;28;20511;-82
2021/08/29 02:20:15;;;;;;;8.30;6.00;;;16.10;98.30;;;;;;4090377;29;20488;-81
2021/08/29 02:22:19;;;;;;;8.30;5.50;;;16.10;98.30;;;;;;4086933;28;20556;-82
2021/08/29 02:24:24;;;;;;;8.60;5.70;;;16.20;98.30;;;;;;4087736;29;20858;-82
2021/08/29 02:26:27;;;;;;;6.30;4.93;;;16.20;98.30;;;;;;4082001;28;20462;-82
2021/08/29 02:28:30;;;;;;;5.73;4.40;;;16.20;98.30;;;;;;4089577;29;20953;-82
2021/08/29 02:30:33;;;;;;;5.23;4.70;;;16.20;98.30;;;;;;4097305;29;20489;-82
2021/08/29 02:32:38;;;;;;;6.50;4.90;;;16.20;98.30;;;;;;4092243;29;20887;-82
2021/08/29 02:34:41;;;;;;;7.07;5.03;;;16.10;98.30;;;;;;4088029;29;20511;-82
2021/08/29 02:36:48;;;;;;;7.63;4.90;;;16.10;98.30;;;;;;4085005;29;20493;-82
2021/08/29 02:38:53;;;;;;;5.90;4.33;;;16.20;98.30;;;;;;4083755;29;20882;-82
2021/08/29 02:40:58;;;;;;;8.33;4.50;;;16.20;98.30;;;;;;4083895;28;20473;-82
2021/08/29 02:43:01;;;;;;;7.00;5.00;;;16.20;98.30;;;;;;4092865;28;20885;-82
2021/08/29 02:45:09;;;;;;;6.60;5.60;;;16.30;98.30;;;;;;4086640;28;20549;-82
2021/08/29 02:47:13;;;;;;;4.20;3.80;;;16.30;98.30;;;;;;4083760;29;20464;-82
2021/08/29 02:49:18;;;;;;;5.50;4.87;;;16.20;98.30;;;;;;4089691;28;20474;-82
2021/08/29 02:51:24;;;;;;;8.13;4.33;;;16.20;98.30;;;;;;4084302;29;20503;-81
2021/08/29 02:53:28;;;;;;;4.20;3.80;;;16.20;98.30;;;;;;4088961;28;20497;-82
2021/08/29 02:55:32;;;;;;;6.50;4.00;;;16.20;98.30;;;;;;4087790;28;20473;-82
2021/08/29 02:57:36;;;;;;;5.93;3.67;;;16.20;98.30;;;;;;4093343;28;20493;-82
2021/08/29 02:59:40;;;;;;;6.37;4.40;;;16.20;98.30;;;;;;4086878;28;20470;-82
2021/08/29 03:01:43;;;;;;;3.97;3.57;;;16.20;98.30;;;;;;4089808;28;21011;-82
2021/08/29 03:03:47;;;;;;;6.30;3.87;;;16.10;98.30;;;;;;4087456;28;20907;-82
2021/08/29 03:05:50;;;;;;;4.03;3.30;;;16.10;98.30;;;;;;4088478;28;20466;-82
2021/08/29 03:07:53;;;;;;;5.50;4.17;;;16.10;98.30;;;;;;4086977;29;20473;-81
2021/08/29 03:09:58;;;;;;;3.60;3.30;;;16.10;98.30;;;;;;4092994;28;20488;-82
2021/08/29 03:12:04;;;;;;;4.27;3.53;;;16.20;98.30;;;;;;4080927;29;20609;-82
2021/08/29 03:14:07;;;;;;;5.70;3.53;;;16.20;98.30;;;;;;4081767;29;20512;-82
2021/08/29 03:16:11;;;;;;;3.97;3.30;;;16.20;98.30;;;;;;4085582;29;21024;-82
2021/08/29 03:18:16;;;;;;;4.00;3.60;;;16.20;98.30;;;;;;4088572;28;20481;-81
2021/08/29 03:20:19;;;;;;;5.37;3.83;;;16.20;98.30;;;;;;4086069;29;20485;-81
2021/08/29 03:22:23;;;;;;;5.00;3.50;;;16.20;98.30;;;;;;4078989;28;20477;-82
2021/08/29 03:24:26;;;;;;;6.40;3.80;;;16.20;98.30;;;;;;4084882;29;20508;-81
2021/08/29 03:26:31;;;;;;;4.30;3.40;;;16.20;98.30;;;;;;4079749;28;20988;-82
2021/08/29 03:28:34;;;;;;;3.93;3.60;;;16.20;98.30;;;;;;4071307;29;21171;-82
2021/08/29 03:30:37;;;;;;;5.63;3.00;;;16.20;98.30;;;;;;4086256;29;20471;-82
2021/08/29 03:32:42;;;;;;;3.73;3.30;;;16.20;98.30;;;;;;4088325;29;20481;-82
2021/08/29 03:34:45;;;;;;;4.37;3.63;;;16.20;98.30;;;;;;4085922;29;20878;-82
2021/08/29 03:36:48;;;;;;;5.30;3.43;;;16.20;98.30;;;;;;4083847;29;20477;-82
2021/08/29 03:38:51;;;;;;;4.43;3.57;;;16.20;98.30;;;;;;4089027;28;20508;-82
2021/08/29 03:40:56;;;;;;;5.20;3.43;;;16.20;98.30;;;;;;4087652;29;20474;-81
2021/08/29 03:43:01;;;;;;;4.07;3.50;;;16.20;98.30;;;;;;4091376;28;20469;-82
2021/08/29 03:45:07;;;;;;;4.43;3.43;;;16.10;98.30;;;;;;4085800;29;20474;-82
2021/08/29 03:47:11;;;;;;;3.97;3.57;;;16.10;98.30;;;;;;4093218;29;20487;-82
2021/08/29 03:49:14;;;;;;;4.60;3.33;;;16.10;98.30;;;;;;4082614;28;20470;-82
2021/08/29 03:51:18;;;;;;;4.10;3.70;;;16.10;98.30;;;;;;4090172;29;20481;-82
2021/08/29 03:53:21;;;;;;;4.43;3.80;;;16.10;98.30;;;;;;4088464;28;20501;-82
2021/08/29 03:55:25;;;;;;;6.43;3.30;;;16.00;98.30;;;;;;4094612;29;20479;-82
2021/08/29 03:57:28;;;;;;;4.30;3.73;;;16.00;98.30;;;;;;4083860;29;20501;-82
2021/08/29 03:59:33;;;;;;;4.73;3.33;;;16.10;98.30;;;;;;4079800;28;20478;-82
2021/08/29 04:01:36;;;;;;;5.03;3.93;;;16.10;98.30;;;;;;4079001;28;20481;-82
2021/08/29 04:03:40;;;;;;;4.67;3.23;;;16.10;98.30;;;;;;4078165;29;20517;-82
2021/08/29 04:05:43;;;;;;;4.20;3.80;;;16.10;98.30;;;;;;4083601;28;20825;-81
2021/08/29 04:07:50;;;;;;;3.70;3.40;;;16.00;98.30;;;;;;4087014;28;20830;-82
2021/08/29 04:09:54;;;;;;;4.63;4.23;;;15.90;98.30;;;;;;4084055;29;20477;-82
2021/08/29 04:11:58;;;;;;;5.87;4.33;;;15.90;98.30;;;;;;4088692;29;20565;-82
2021/08/29 04:14:02;;;;;;;4.30;3.50;;;15.90;98.30;;;;;;4083790;28;20501;-82
2021/08/29 04:16:08;;;;;;;4.40;3.83;;;15.80;98.30;;;;;;4096373;28;21053;-82
2021/08/29 04:18:11;;;;;;;4.23;3.83;;;15.90;98.30;;;;;;4081466;28;20552;-82
2021/08/29 04:20:15;;;;;;;4.40;4.00;;;15.80;98.30;;;;;;4085763;29;21052;-82
2021/08/29 04:22:18;;;;;;;6.60;4.20;;;15.90;98.30;;;;;;4095439;28;20524;-82
2021/08/29 04:24:22;;;;;;;5.80;4.13;;;15.90;98.30;;;;;;4100127;29;20571;-83
2021/08/29 04:26:25;;;;;;;4.83;3.80;;;15.90;98.30;;;;;;4102345;29;20520;-83
2021/08/29 04:28:29;;;;;;;5.30;4.00;;;16.00;98.30;;;;;;4101416;29;20487;-82
2021/08/29 04:30:33;;;;;;;4.03;3.60;;;16.00;98.30;;;;;;4099487;28;20535;-82
2021/08/29 04:32:39;;;;;;;5.40;4.07;;;16.00;98.30;;;;;;4099765;28;20551;-82
2021/08/29 04:34:42;;;;;;;4.70;4.30;;;16.00;98.30;;;;;;4099037;28;20515;-82
2021/08/29 04:36:45;;;;;;;5.07;3.73;;;16.10;98.30;;;;;;4096423;28;20967;-82
2021/08/29 04:38:48;;;;;;;4.77;4.27;;;16.10;98.30;;;;;;4083740;28;21026;-82
2021/08/29 04:40:51;;;;;;;7.00;4.00;;;16.10;98.30;;;;;;4092541;29;21040;-82
2021/08/29 04:42:54;;;;;;;3.83;3.43;;;16.10;98.30;;;;;;4089671;29;20977;-82
2021/08/29 04:44:57;;;;;;;4.43;3.83;;;16.10;98.30;;;;;;4093966;28;20481;-82
2021/08/29 04:46:59;;;;;;;4.20;3.80;;;16.10;98.30;;;;;;4092079;28;20984;-82
2021/08/29 04:49:04;;;;;;;3.57;3.27;;;16.10;98.30;;;;;;4085776;28;20466;-82
2021/08/29 04:51:06;;;;;;;3.50;3.20;;;16.10;98.30;;;;;;4095748;28;20473;-82
2021/08/29 04:53:09;;;;;;;3.73;3.33;;;16.00;98.30;;;;;;4089991;28;20485;-82
2021/08/29 04:55:12;;;;;;;3.80;3.40;;;16.00;98.30;;;;;;4088511;29;20482;-83
2021/08/29 04:57:15;;;;;;;4.10;3.70;;;16.00;98.30;;;;;;4093210;28;20466;-82
2021/08/29 04:59:18;;;;;;;3.57;3.27;;;16.00;98.30;;;;;;4091119;29;21233;-83
2021/08/29 05:01:22;;;;;;;3.93;3.37;;;16.00;98.30;;;;;;4091619;28;20556;-82
2021/08/29 05:03:25;;;;;;;4.00;3.20;;;16.00;98.30;;;;;;4089352;28;20593;-82
2021/08/29 05:05:30;;;;;;;4.00;3.47;;;16.00;98.30;;;;;;4084120;28;20500;-81
2021/08/29 05:07:33;;;;;;;4.17;3.77;;;16.00;98.30;;;;;;4088716;29;20479;-82
2021/08/29 05:09:36;;;;;;;4.43;3.10;;;16.00;98.30;;;;;;4089966;29;20473;-82
2021/08/29 05:11:39;;;;;;;3.53;3.23;;;15.90;98.30;;;;;;4091162;29;21126;-82
2021/08/29 05:13:41;;;;;;;3.80;3.50;;;15.90;98.30;;;;;;4081514;29;20490;-82
2021/08/29 05:15:44;;;;;;;5.83;3.40;;;15.90;98.30;;;;;;4086720;29;20489;-82
2021/08/29 05:17:47;;;;;;;3.60;3.30;;;15.90;98.30;;;;;;4087278;28;20473;-82
2021/08/29 05:19:50;;;;;;;4.00;3.60;;;15.90;98.30;;;;;;4087628;28;20485;-82
2021/08/29 05:21:55;;;;;;;3.63;3.33;;;15.90;98.30;;;;;;4092309;29;21148;-82
2021/08/29 05:23:58;;;;;;;4.67;4.00;;;15.90;98.30;;;;;;4084050;28;20512;-82
2021/08/29 05:26:01;;;;;;;4.60;4.10;;;15.90;98.30;;;;;;4094437;28;20482;-82
2021/08/29 05:28:05;;;;;;;4.10;3.70;;;15.90;98.30;;;;;;4075941;29;20473;-82
2021/08/29 05:30:09;;;;;;;3.70;3.40;;;15.90;98.30;;;;;;4087981;29;20480;-81
2021/08/29 05:32:12;;;;;;;3.60;3.30;;;15.90;98.30;;;;;;4091331;29;20490;-81
2021/08/29 05:34:14;;;;;;;3.97;3.53;;;15.90;98.30;;;;;;4085328;28;20510;-80
2021/08/29 05:36:17;;;;;;;5.27;3.70;;;16.00;98.30;;;;;;4086581;29;22190;-82
2021/08/29 05:38:22;;;;;;;4.47;3.63;;;16.00;98.30;;;;;;4089423;29;20474;-81
2021/08/29 05:40:24;;;;;;;4.53;4.13;;;16.10;98.30;;;;;;4084580;29;20478;-81
2021/08/29 05:42:27;;;;;;;4.03;3.63;;;16.10;98.30;;;;;;4082203;29;20518;-82
2021/08/29 05:44:31;;;;;;;3.67;3.37;;;16.10;98.30;;;;;;4086662;28;21026;-81
2021/08/29 05:46:34;;;;;;;3.90;3.50;;;16.20;98.30;;;;;;4089349;29;21094;-81
2021/08/29 05:48:37;;;;;;;3.90;3.50;;;16.30;98.30;;;;;;4088207;29;20545;-81
2021/08/29 05:50:39;;;;;;;4.10;3.27;;;16.30;98.30;;;;;;4066442;29;20561;-81
2021/08/29 05:52:42;;;;;;;3.40;3.10;;;16.30;98.30;;;;;;4072680;28;20486;-82
2021/08/29 05:54:47;;;;;;;3.87;3.07;;;16.30;98.30;;;;;;4079812;29;20501;-81
2021/08/29 05:56:50;;;;;;;4.87;3.03;;;16.40;98.30;;;;;;4076987;28;20478;-81
2021/08/29 05:58:52;;;;;;;3.50;3.20;;;16.40;98.30;;;;;;4082247;28;21269;-81
2021/08/29 06:00:55;;;;;;;3.77;3.47;;;16.40;98.30;;;;;;4080861;28;20474;-81
2021/08/29 06:02:59;;;;;;;3.57;3.27;;;16.40;98.30;;;;;;4080804;29;20486;-85
2021/08/29 06:05:02;;;;;;;4.33;3.57;;;16.40;98.30;;;;;;4083002;28;20465;-82
2021/08/29 06:07:05;;;;;;;3.40;3.10;;;16.40;98.30;;;;;;4079444;28;20474;-81
2021/08/29 06:09:08;;;;;;;6.00;4.40;;;16.40;98.30;;;;;;4090152;28;20501;-82
2021/08/29 06:11:13;;;;;;;4.50;4.10;;;16.40;98.30;;;;;;4082500;28;20489;-82
2021/08/29 06:13:16;;;;;;;3.90;3.60;;;16.50;98.30;;;;;;4083383;28;20470;-82
2021/08/29 06:15:19;;;;;;;5.00;4.50;;;16.50;98.30;;;;;;4082220;28;20477;-82
2021/08/29 06:17:22;;;;;;;4.53;4.13;;;16.50;98.30;;;;;;4091040;28;20480;-81
2021/08/29 06:19:25;;;;;;;3.73;3.33;;;16.60;98.30;;;;;;4084832;28;20568;-82
2021/08/29 06:21:28;;;;;;;3.97;3.57;;;16.60;98.30;;;;;;4082420;29;20577;-82
2021/08/29 06:23:31;;;;;;;4.40;4.00;;;16.60;98.30;;;;;;4082872;29;20490;-82
2021/08/29 06:25:35;;;;;;;5.90;4.40;;;16.50;98.30;;;;;;4080046;28;20481;-81
2021/08/29 06:27:42;;;;;;;3.70;3.40;;;16.50;98.30;;;;;;4090786;28;20466;-81
2021/08/29 06:29:45;;;;;;;4.90;4.40;;;16.50;98.30;;;;;;4089919;28;21054;-81
2021/08/29 06:31:51;;;;;;;4.17;3.77;;;16.60;98.30;;;;;;4089719;28;20489;-82
2021/08/29 06:33:54;;;;;;;5.23;4.73;;;16.60;98.30;;;;;;4085503;28;20510;-83
2021/08/29 06:35:57;;;;;;;6.00;5.40;;;16.60;98.30;;;;;;4077810;28;20469;-82
2021/08/29 06:38:03;;;;;;;6.20;4.87;;;16.50;98.30;;;;;;4075101;29;20874;-82
2021/08/29 06:40:07;;;;;;;10.20;8.53;;;16.60;98.30;;;;;;4088090;28;20496;-81
2021/08/29 06:42:10;;;;;;;21.97;18.20;;;16.70;98.30;;;;;;4090155;29;20473;-81
2021/08/29 06:44:14;;;;;;;35.87;24.53;;;16.80;98.30;;;;;;4083255;29;20865;-82
2021/08/29 06:46:17;;;;;;;11.17;9.10;;;16.80;98.30;;;;;;4090057;28;20486;-81
2021/08/29 06:48:20;;;;;;;7.03;5.90;;;16.80;98.30;;;;;;4083810;29;20482;-82
2021/08/29 06:50:23;;;;;;;6.10;5.20;;;16.80;98.30;;;;;;4086532;28;20489;-83
2021/08/29 06:52:26;;;;;;;5.50;4.50;;;16.80;98.30;;;;;;4082185;28;20525;-82
2021/08/29 06:54:30;;;;;;;5.07;4.57;;;16.80;98.30;;;;;;4087070;28;20482;-81
2021/08/29 06:56:33;;;;;;;4.90;4.40;;;16.80;98.30;;;;;;4088979;28;20470;-81
2021/08/29 06:58:36;;;;;;;6.43;5.83;;;16.80;98.30;;;;;;4088120;28;20473;-82
2021/08/29 07:00:41;;;;;;;5.30;4.70;;;16.80;98.30;;;;;;4085810;29;20597;-82
2021/08/29 07:02:44;;;;;;;13.90;10.57;;;16.80;98.30;;;;;;4084117;28;20520;-82
2021/08/29 07:04:47;;;;;;;31.33;25.70;;;16.80;98.30;;;;;;4081261;28;20490;-82
2021/08/29 07:06:50;;;;;;;34.10;24.47;;;16.90;98.30;;;;;;4084114;28;20479;-82
2021/08/29 07:08:53;;;;;;;42.27;31.90;;;17.00;98.30;;;;;;4088718;29;20499;-83
2021/08/29 07:10:56;;;;;;;31.20;23.30;;;17.00;98.30;;;;;;4086132;29;20531;-82
2021/08/29 07:13:01;;;;;;;29.77;21.20;;;17.00;98.30;;;;;;4087357;29;20477;-81
2021/08/29 07:15:06;;;;;;;30.43;21.73;;;17.10;98.30;;;;;;4089114;28;20461;-82
2021/08/29 07:17:14;;;;;;;25.43;18.70;;;17.10;98.30;;;;;;4088239;28;20479;-83
2021/08/29 07:19:17;;;;;;;35.00;24.27;;;17.10;98.30;;;;;;4088434;29;20508;-82
2021/08/29 07:21:20;;;;;;;40.60;29.77;;;17.10;98.30;;;;;;4078929;28;20907;-82
2021/08/29 07:23:25;;;;;;;30.93;23.80;;;17.20;98.30;;;;;;4083624;28;20532;-82
2021/08/29 07:25:28;;;;;;;26.53;19.30;;;17.20;98.30;;;;;;4090006;28;20545;-81
2021/08/29 07:27:31;;;;;;;21.13;15.40;;;17.30;98.30;;;;;;4087183;29;20487;-81
2021/08/29 07:29:34;;;;;;;26.60;18.87;;;17.30;98.30;;;;;;4086824;28;20466;-82
2021/08/29 07:31:37;;;;;;;25.70;19.27;;;17.30;98.30;;;;;;4082796;28;20467;-82
2021/08/29 07:33:41;;;;;;;28.73;20.77;;;17.40;98.30;;;;;;4088043;28;20604;-82
2021/08/29 07:35:44;;;;;;;18.63;13.20;;;17.40;98.30;;;;;;4092254;29;20609;-81
2021/08/29 07:37:47;;;;;;;13.83;10.80;;;17.40;98.30;;;;;;4090706;28;20465;-82
2021/08/29 07:39:50;;;;;;;18.87;14.50;;;17.40;98.30;;;;;;4096132;29;20501;-81
2021/08/29 07:41:54;;;;;;;22.87;17.27;;;17.50;98.30;;;;;;4086452;29;20589;-82
2021/08/29 07:43:57;;;;;;;32.93;25.67;;;17.50;98.30;;;;;;4092434;29;20508;-81
2021/08/29 07:46:00;;;;;;;36.77;27.17;;;17.50;98.30;;;;;;4091883;28;20548;-82
2021/08/29 07:48:04;;;;;;;17.53;14.43;;;17.50;98.30;;;;;;4092361;28;20474;-82
2021/08/29 07:50:10;;;;;;;10.60;9.30;;;17.50;98.30;;;;;;4090674;28;20477;-82
2021/08/29 07:52:13;;;;;;;5.90;4.57;;;17.50;98.30;;;;;;4080274;28;20906;-83
2021/08/29 07:54:16;;;;;;;14.10;9.90;;;17.50;98.30;;;;;;4092758;29;20499;-82
2021/08/29 07:56:19;;;;;;;7.03;6.00;;;17.40;98.30;;;;;;4092460;29;20995;-82
2021/08/29 07:58:22;;;;;;;9.37;7.13;;;17.40;98.30;;;;;;4089451;28;20482;-82
2021/08/29 08:00:25;;;;;;;5.53;4.87;;;17.40;98.30;;;;;;4088619;29;20942;-81
2021/08/29 08:02:28;;;;;;;9.00;6.60;;;17.30;98.30;;;;;;4093098;28;20502;-82
2021/08/29 08:04:31;;;;;;;12.70;10.43;;;17.30;98.30;;;;;;4091386;28;20506;-82
2021/08/29 08:06:35;;;;;;;7.83;7.03;;;17.40;98.30;;;;;;4091290;29;20972;-82
2021/08/29 08:08:38;;;;;;;8.20;6.83;;;17.50;98.30;;;;;;4088740;29;20477;-84
2021/08/29 08:10:41;;;;;;;8.80;7.10;;;17.50;98.30;;;;;;4087100;29;20561;-82
2021/08/29 08:12:44;;;;;;;7.17;5.97;;;17.50;98.30;;;;;;4086618;28;20913;-83
2021/08/29 08:14:47;;;;;;;7.93;5.77;;;17.60;98.30;;;;;;4091407;28;20491;-82
2021/08/29 08:16:50;;;;;;;7.23;6.20;;;17.70;98.30;;;;;;4090851;29;20946;-82
2021/08/29 08:18:53;;;;;;;9.73;7.53;;;17.80;98.30;;;;;;4092681;28;20486;-82
2021/08/29 08:20:57;;;;;;;10.40;9.00;;;17.90;98.30;;;;;;4092116;28;20489;-82
2021/08/29 08:23:01;;;;;;;9.27;8.00;;;17.90;98.30;;;;;;4090003;28;20831;-83
2021/08/29 08:25:05;;;;;;;6.10;5.10;;;17.90;98.30;;;;;;4095179;28;20469;-83
2021/08/29 08:27:09;;;;;;;5.67;5.10;;;17.90;98.30;;;;;;4091073;29;20482;-82
2021/08/29 08:29:12;;;;;;;6.57;5.37;;;18.00;98.30;;;;;;4087238;28;20494;-82
2021/08/29 08:31:15;;;;;;;7.67;5.17;;;18.10;98.30;;;;;;4087505;28;20484;-82
2021/08/29 08:33:18;;;;;;;4.77;4.27;;;18.10;98.30;;;;;;4088540;28;20572;-82
2021/08/29 08:35:21;;;;;;;6.50;4.00;;;18.10;98.30;;;;;;4091363;28;20484;-82
2021/08/29 08:37:24;;;;;;;3.80;3.47;;;18.20;98.30;;;;;;4098181;28;21043;-82
2021/08/29 08:39:29;;;;;;;4.50;3.70;;;18.20;98.30;;;;;;4086318;28;20472;-82
2021/08/29 08:41:39;;;;;;;4.17;3.77;;;18.20;98.30;;;;;;4091444;28;21229;-82
2021/08/29 08:43:42;;;;;;;3.77;3.43;;;18.20;98.30;;;;;;4101365;29;20570;-82
2021/08/29 08:45:47;;;;;;;3.90;3.60;;;18.10;98.30;;;;;;4100377;28;20553;-82
2021/08/29 08:47:50;;;;;;;3.60;3.23;;;18.10;98.30;;;;;;4103839;29;20469;-83
2021/08/29 08:49:58;;;;;;;4.60;3.83;;;18.20;98.30;;;;;;4103443;28;20490;-83
2021/08/29 08:52:04;;;;;;;8.57;7.23;;;18.10;98.30;;;;;;4101578;29;20552;-82
2021/08/29 08:54:08;;;;;;;22.50;18.20;;;18.10;98.30;;;;;;4102683;29;20502;-82
2021/08/29 08:56:13;;;;;;;46.63;33.70;;;18.10;98.30;;;;;;4102741;28;20481;-82
2021/08/29 08:58:17;;;;;;;11.53;8.80;;;18.20;98.30;;;;;;4094732;28;20502;-82
2021/08/29 09:00:20;;;;;;;3.50;3.20;;;18.20;98.30;;;;;;4092033;28;20486;-82
2021/08/29 09:02:24;;;;;;;3.50;3.20;;;18.20;98.30;;;;;;4093583;28;20826;-82
2021/08/29 09:04:27;;;;;;;3.47;2.80;;;18.20;98.30;;;;;;4092094;29;20548;-82
2021/08/29 09:06:34;;;;;;;4.67;2.63;;;18.20;98.30;;;;;;4089348;28;20475;-82
2021/08/29 09:08:38;;;;;;;2.87;2.67;;;18.20;98.30;;;;;;4091211;28;20465;-82
2021/08/29 09:10:41;;;;;;;3.20;2.87;;;18.10;98.30;;;;;;4091906;28;20470;-81
2021/08/29 09:13:04;;;;;;;3.30;3.00;;;18.10;98.30;;;;;;4092573;29;20495;-82
2021/08/29 09:15:19;;;;;;;3.17;2.87;;;18.10;98.30;;;;;;4089752;28;20473;-81
2021/08/29 09:17:29;;;;;;;3.03;2.83;;;18.10;98.30;;;;;;4092117;29;20473;-82
2021/08/29 09:19:31;;;;;;;10.10;9.03;;;18.10;98.30;;;;;;4091334;28;20464;-81
2021/08/29 09:21:36;;;;;;;17.20;14.80;;;18.10;98.30;;;;;;4090278;28;20499;-81
2021/08/29 09:23:40;;;;;;;6.00;5.20;;;18.10;98.30;;;;;;4086796;29;20490;-81
2021/08/29 09:25:44;;;;;;;5.10;4.60;;;18.10;98.30;;;;;;4088932;28;20483;-81
2021/08/29 09:27:50;;;;;;;3.53;3.23;;;18.20;98.30;;;;;;4091219;28;20480;-82
2021/08/29 09:29:54;;;;;;;5.80;3.33;;;18.10;98.30;;;;;;4091906;29;20477;-81
2021/08/29 09:31:57;;;;;;;3.50;3.20;;;18.10;98.30;;;;;;4091732;29;20494;-81
2021/08/29 09:34:00;;;;;;;4.53;3.20;;;18.10;98.30;;;;;;4091858;28;20505;-81
2021/08/29 09:36:04;;;;;;;3.60;3.30;;;18.10;98.30;;;;;;4093187;29;20505;-81
2021/08/29 09:38:11;;;;;;;3.57;3.27;;;18.10;98.30;;;;;;4092814;28;20474;-81
2021/08/29 09:40:16;;;;;;;4.70;2.97;;;18.20;98.30;;;;;;4092166;29;20476;-81
2021/08/29 09:42:19;;;;;;;5.27;3.00;;;18.20;98.30;;;;;;4092622;29;20525;-81
2021/08/29 09:44:23;;;;;;;3.10;2.87;;;18.30;98.30;;;;;;4091335;28;20532;-81
2021/08/29 09:46:27;;;;;;;4.23;2.87;;;18.20;98.30;;;;;;4093139;28;20473;-81
2021/08/29 09:48:30;;;;;;;3.80;3.30;;;18.20;98.30;;;;;;4091854;28;20474;-82
2021/08/29 09:50:35;;;;;;;4.23;3.83;;;18.20;98.30;;;;;;4091380;28;20474;-81
2021/08/29 09:52:40;;;;;;;2.93;2.60;;;18.20;98.30;;;;;;4090495;29;20545;-81
2021/08/29 09:54:44;;;;;;;4.83;3.57;;;18.20;98.30;;;;;;4091656;29;20477;-81
2021/08/29 09:56:50;;;;;;;3.33;3.00;;;18.20;98.30;;;;;;4090797;29;20484;-82
2021/08/29 09:58:55;;;;;;;3.27;2.97;;;18.10;98.30;;;;;;4088730;28;20483;-82
2021/08/29 10:01:12;;;;;;;3.10;2.70;;;18.10;98.30;;;;;;4091253;29;20965;-82
2021/08/29 10:03:28;;;;;;;3.40;3.10;;;18.00;98.30;;;;;;4092501;28;20860;-81
2021/08/29 10:05:31;;;;;;;3.27;2.97;;;18.00;98.30;;;;;;4091187;28;20501;-81
2021/08/29 10:07:35;;;;;;;3.30;3.00;;;18.00;98.30;;;;;;4089978;28;20833;-81
2021/08/29 10:09:38;;;;;;;4.87;3.70;;;17.90;98.30;;;;;;4091983;29;20568;-81
2021/08/29 10:11:41;;;;;;;3.37;3.00;;;17.80;98.30;;;;;;4090259;28;20477;-81
2021/08/29 10:13:44;;;;;;;4.90;4.20;;;17.80;98.30;;;;;;4090800;29;20512;-81
2021/08/29 10:15:50;;;;;;;10.73;9.20;;;17.80;98.30;;;;;;4089460;28;20466;-82
2021/08/29 10:17:58;;;;;;;13.80;9.33;;;17.90;98.30;;;;;;4091325;28;20473;-82
2021/08/29 10:20:03;;;;;;;5.10;4.43;;;18.00;98.30;;;;;;4091096;29;20473;-81
2021/08/29 10:22:07;;;;;;;5.53;4.47;;;18.00;98.30;;;;;;4089456;28;20490;-81
2021/08/29 10:24:12;;;;;;;4.63;4.23;;;18.00;98.30;;;;;;4090409;28;21017;-81
2021/08/29 10:26:17;;;;;;;5.20;4.70;;;18.00;98.30;;;;;;4091524;28;20470;-81
2021/08/29 10:28:26;;;;;;;6.33;5.10;;;18.00;98.30;;;;;;4091109;28;20482;-81
2021/08/29 10:30:32;;;;;;;4.40;4.00;;;18.00;98.30;;;;;;4091830;28;21012;-81
2021/08/29 10:32:38;;;;;;;6.67;5.47;;;17.90;98.30;;;;;;4089589;29;20590;-82
2021/08/29 10:34:42;;;;;;;6.40;5.10;;;17.90;98.30;;;;;;4089518;29;20506;-82
2021/08/29 10:36:47;;;;;;;6.03;5.40;;;17.80;98.30;;;;;;4090837;28;20480;-82
2021/08/29 10:38:51;;;;;;;6.73;5.37;;;17.90;98.30;;;;;;4093498;28;20484;-82
2021/08/29 10:40:54;;;;;;;6.60;5.50;;;17.80;98.30;;;;;;4088530;28;20473;-81
2021/08/29 10:42:58;;;;;;;7.50;5.93;;;17.80;98.30;;;;;;4091008;29;20490;-83
2021/08/29 10:45:02;;;;;;;5.90;5.30;;;17.90;98.30;;;;;;4089459;29;20482;-81